Time;durP1;ratioP1;P1;durP2;ratioP2;P2;SDS_P1;SDS_P2;PMS_P1;PMS_P2;Temp;Humidity;BMP_temperature;BMP_pressure;BME280_temperature;BME280_humidity;BME280_pressure;Samples;Min_cycle;Max_cycle;Signal;HPM_P1;HPM_P2
2022/11/03 00:01:37;;;;;;;17.42;6.97;;;;;;;;;;4969618;28;20046;-73
2022/11/03 00:04:05;;;;;;;17.63;7.07;;;;;;;;;;4973622;28;20069;-71
2022/11/03 00:06:31;;;;;;;16.85;7.03;;;;;;;;;;4967618;28;20078;-72
2022/11/03 00:08:58;;;;;;;20.73;7.13;;;;;;;;;;4969986;28;20081;-70
2022/11/03 00:11:25;;;;;;;17.35;7.43;;;;;;;;;;4967262;28;20390;-70
2022/11/03 00:13:50;;;;;;;20.20;7.38;;;;;;;;;;4968005;28;20520;-70
2022/11/03 00:16:16;;;;;;;18.90;7.38;;;;;;;;;;4953806;28;20046;-69
2022/11/03 00:18:42;;;;;;;15.75;7.40;;;;;;;;;;4971568;28;20454;-71
2022/11/03 00:21:11;;;;;;;18.13;7.50;;;;;;;;;;4979784;28;20054;-72
2022/11/03 00:23:40;;;;;;;18.83;7.70;;;;;;;;;;4979372;28;20161;-72
2022/11/03 00:26:12;;;;;;;26.00;7.18;;;;;;;;;;4969339;28;20044;-70
2022/11/03 00:28:39;;;;;;;14.07;7.70;;;;;;;;;;4964738;28;20628;-70
2022/11/03 00:31:13;;;;;;;20.00;7.25;;;;;;;;;;4969955;28;20452;-70
2022/11/03 00:33:40;;;;;;;15.30;7.60;;;;;;;;;;4967881;28;20058;-70
2022/11/03 00:36:09;;;;;;;19.60;8.07;;;;;;;;;;4962426;28;20516;-70
2022/11/03 00:38:36;;;;;;;16.23;7.05;;;;;;;;;;4967757;28;20480;-71
2022/11/03 00:41:04;;;;;;;26.88;8.07;;;;;;;;;;4968085;28;20129;-70
2022/11/03 00:43:32;;;;;;;19.08;7.60;;;;;;;;;;4965723;28;20050;-71
2022/11/03 00:45:59;;;;;;;19.80;7.95;;;;;;;;;;4965649;28;20066;-70
2022/11/03 00:48:31;;;;;;;16.05;8.00;;;;;;;;;;4966779;28;20046;-70
2022/11/03 00:51:10;;;;;;;16.77;7.07;;;;;;;;;;4966146;28;20078;-71
2022/11/03 00:53:44;;;;;;;16.10;7.68;;;;;;;;;;4967085;28;20519;-69
2022/11/03 00:56:13;;;;;;;20.27;8.18;;;;;;;;;;4968436;28;20388;-72
2022/11/03 00:58:39;;;;;;;19.10;7.95;;;;;;;;;;4965374;28;20062;-70
2022/11/03 01:01:17;;;;;;;16.83;7.30;;;;;;;;;;4968866;28;20121;-72
2022/11/03 01:06:48;;;;;;;20.00;7.78;;;;;;;;;;4977159;28;20055;-71
2022/11/03 01:06:49;;;;;;;14.43;7.88;;;;;;;;;;4972877;28;20057;-72
2022/11/03 01:09:25;;;;;;;19.77;7.63;;;;;;;;;;4968171;28;20049;-72
2022/11/03 01:11:57;;;;;;;18.13;7.47;;;;;;;;;;4970923;28;20082;-71
2022/11/03 01:14:25;;;;;;;20.10;8.15;;;;;;;;;;4968215;28;20051;-72
2022/11/03 01:16:51;;;;;;;21.02;7.30;;;;;;;;;;4971207;28;20039;-70
2022/11/03 01:19:17;;;;;;;18.70;7.40;;;;;;;;;;4953207;28;20528;-72
2022/11/03 01:21:43;;;;;;;19.35;7.35;;;;;;;;;;4970234;28;20043;-71
2022/11/03 01:24:09;;;;;;;13.02;7.25;;;;;;;;;;4962010;28;20074;-70
2022/11/03 01:26:35;;;;;;;17.52;7.20;;;;;;;;;;4967014;28;20085;-70
2022/11/03 01:29:01;;;;;;;19.35;7.88;;;;;;;;;;4966756;28;20074;-70
2022/11/03 01:31:28;;;;;;;17.40;7.43;;;;;;;;;;4974436;28;20445;-68
2022/11/03 01:33:55;;;;;;;17.17;8.10;;;;;;;;;;4983117;28;20050;-71
2022/11/03 01:36:21;;;;;;;14.73;7.72;;;;;;;;;;4989422;28;20057;-70
2022/11/03 01:38:47;;;;;;;18.30;8.00;;;;;;;;;;4982446;28;20050;-70
2022/11/03 01:41:18;;;;;;;14.65;7.55;;;;;;;;;;4986395;28;20276;-71
2022/11/03 01:44:08;;;;;;;20.40;7.85;;;;;;;;;;4975902;28;20101;-73
2022/11/03 01:46:39;;;;;;;13.65;7.88;;;;;;;;;;4925324;29;20058;-70
2022/11/03 01:49:10;;;;;;;16.95;7.30;;;;;;;;;;4923560;29;20434;-71
2022/11/03 01:51:36;;;;;;;14.20;7.15;;;;;;;;;;4931587;29;20044;-70
2022/11/03 01:54:08;;;;;;;18.02;7.65;;;;;;;;;;4930893;29;20058;-69
2022/11/03 01:56:40;;;;;;;12.70;7.68;;;;;;;;;;4930606;29;20166;-70
2022/11/03 01:59:06;;;;;;;11.52;6.65;;;;;;;;;;4928313;29;20048;-69
2022/11/03 02:01:33;;;;;;;14.43;7.43;;;;;;;;;;4928916;29;20183;-69
2022/11/03 02:04:06;;;;;;;16.35;7.68;;;;;;;;;;4928815;29;20048;-68
2022/11/03 02:06:32;;;;;;;16.33;7.88;;;;;;;;;;4927542;29;20048;-69
2022/11/03 02:09:04;;;;;;;14.57;8.10;;;;;;;;;;4927057;29;20079;-71
2022/11/03 02:14:17;;;;;;;18.60;7.60;;;;;;;;;;4921403;29;20403;-71
2022/11/03 02:16:48;;;;;;;16.92;7.93;;;;;;;;;;4929961;29;20063;-69
2022/11/03 02:19:29;;;;;;;18.35;7.78;;;;;;;;;;4929315;29;20044;-70
2022/11/03 02:22:26;;;;;;;17.23;7.47;;;;;;;;;;4928971;29;20050;-70
2022/11/03 02:25:04;;;;;;;13.25;7.90;;;;;;;;;;4975184;28;20373;-71
2022/11/03 02:27:30;;;;;;;23.17;8.27;;;;;;;;;;4989012;28;20077;-71
2022/11/03 02:29:57;;;;;;;14.98;7.57;;;;;;;;;;4984908;28;20093;-72
2022/11/03 02:32:27;;;;;;;17.85;8.18;;;;;;;;;;4985026;28;20435;-70
2022/11/03 02:34:58;;;;;;;16.52;8.00;;;;;;;;;;4981202;28;20054;-70
2022/11/03 02:37:28;;;;;;;19.15;8.73;;;;;;;;;;4985237;28;20488;-68
2022/11/03 02:40:00;;;;;;;18.75;8.25;;;;;;;;;;4983062;28;20050;-72
2022/11/03 02:42:27;;;;;;;16.50;8.75;;;;;;;;;;4984147;28;20039;-67
2022/11/03 02:44:56;;;;;;;18.73;8.95;;;;;;;;;;4983746;28;20050;-69
2022/11/03 02:47:25;;;;;;;19.10;9.02;;;;;;;;;;4981667;28;20055;-67
2022/11/03 02:49:53;;;;;;;14.43;8.63;;;;;;;;;;4973560;28;20117;-69
2022/11/03 02:52:51;;;;;;;20.83;8.73;;;;;;;;;;4987945;28;20518;-70
2022/11/03 02:55:38;;;;;;;16.80;8.98;;;;;;;;;;4977431;28;20312;-69
2022/11/03 02:58:17;;;;;;;14.43;8.85;;;;;;;;;;4983879;28;20608;-70
2022/11/03 03:01:00;;;;;;;16.80;8.73;;;;;;;;;;4979567;28;20481;-71
2022/11/03 03:03:35;;;;;;;18.30;9.88;;;;;;;;;;4977567;28;20051;-69
2022/11/03 03:06:07;;;;;;;21.48;9.45;;;;;;;;;;4976791;28;20042;-69
2022/11/03 03:08:37;;;;;;;24.95;9.80;;;;;;;;;;4981099;28;20046;-68
2022/11/03 03:11:04;;;;;;;19.70;10.15;;;;;;;;;;4984827;28;20409;-70
2022/11/03 03:13:31;;;;;;;19.58;10.20;;;;;;;;;;4974929;28;20111;-69
2022/11/03 03:16:25;;;;;;;14.52;10.00;;;;;;;;;;4983349;28;20132;-71
2022/11/03 03:19:16;;;;;;;19.85;10.15;;;;;;;;;;4983879;28;20062;-68
2022/11/03 03:21:46;;;;;;;22.88;8.93;;;;;;;;;;4986088;28;20050;-70
2022/11/03 03:24:37;;;;;;;20.63;10.40;;;;;;;;;;4980060;28;20096;-69
2022/11/03 03:27:08;;;;;;;19.40;9.32;;;;;;;;;;4972544;28;20038;-69
2022/11/03 03:29:41;;;;;;;18.90;9.30;;;;;;;;;;4987691;28;20061;-70
2022/11/03 03:32:09;;;;;;;25.65;10.35;;;;;;;;;;4975211;28;20441;-69
2022/11/03 03:34:40;;;;;;;21.27;10.35;;;;;;;;;;4987688;28;20069;-71
2022/11/03 03:37:09;;;;;;;19.20;9.68;;;;;;;;;;4987681;28;20046;-67
2022/11/03 03:39:38;;;;;;;22.10;10.35;;;;;;;;;;4988607;28;20068;-68
2022/11/03 03:42:07;;;;;;;18.33;9.95;;;;;;;;;;4988224;28;20042;-69
2022/11/03 03:44:34;;;;;;;19.23;10.02;;;;;;;;;;4988927;28;20096;-70
2022/11/03 03:47:08;;;;;;;17.52;10.38;;;;;;;;;;4987660;28;20050;-70
2022/11/03 03:49:34;;;;;;;22.38;10.20;;;;;;;;;;4984926;28;20802;-71
2022/11/03 03:52:02;;;;;;;18.05;11.23;;;;;;;;;;4983792;28;20419;-70
2022/11/03 03:54:28;;;;;;;23.08;11.95;;;;;;;;;;4989570;28;20049;-69
2022/11/03 03:57:05;;;;;;;28.77;11.63;;;;;;;;;;4989473;28;20408;-68
2022/11/03 03:59:31;;;;;;;22.02;12.10;;;;;;;;;;4987377;28;20499;-69
2022/11/03 04:01:57;;;;;;;29.60;12.57;;;;;;;;;;4988806;28;20236;-69
2022/11/03 04:04:24;;;;;;;19.10;11.70;;;;;;;;;;4987956;28;20042;-70
2022/11/03 04:07:45;;;;;;;22.42;12.10;;;;;;;;;;4986227;28;20053;-69
2022/11/03 04:09:35;;;;;;;27.55;12.75;;;;;;;;;;4984861;28;20192;-70
2022/11/03 04:22:58;;;;;;;26.10;13.18;;;;;;;;;;4981891;28;20061;-69
2022/11/03 04:25:24;;;;;;;26.40;13.00;;;;;;;;;;4980770;28;20749;-69
2022/11/03 04:27:50;;;;;;;26.30;13.05;;;;;;;;;;4983924;28;20042;-69
2022/11/03 04:30:19;;;;;;;23.75;12.90;;;;;;;;;;4988615;28;20050;-69
2022/11/03 04:32:47;;;;;;;26.48;12.52;;;;;;;;;;4984621;28;20061;-69
2022/11/03 04:35:24;;;;;;;21.27;13.32;;;;;;;;;;4969609;28;20485;-68
2022/11/03 04:37:56;;;;;;;24.45;13.15;;;;;;;;;;4950046;28;20097;-69
2022/11/03 04:40:22;;;;;;;29.40;13.15;;;;;;;;;;4973839;28;20133;-71
2022/11/03 04:42:49;;;;;;;23.90;11.50;;;;;;;;;;4970027;28;20129;-71
2022/11/03 04:45:32;;;;;;;23.73;12.48;;;;;;;;;;4979400;28;20133;-70
2022/11/03 04:48:05;;;;;;;24.92;12.25;;;;;;;;;;4968801;28;20047;-70
2022/11/03 04:50:31;;;;;;;23.17;11.93;;;;;;;;;;4957788;28;20073;-73
2022/11/03 04:52:57;;;;;;;22.38;12.18;;;;;;;;;;4956406;28;20062;-70
2022/11/03 04:55:24;;;;;;;22.52;11.50;;;;;;;;;;4966078;28;20402;-70
2022/11/03 04:57:56;;;;;;;22.83;12.25;;;;;;;;;;4967698;28;20047;-70
2022/11/03 05:00:23;;;;;;;20.25;11.68;;;;;;;;;;4971929;28;20042;-69
2022/11/03 05:02:50;;;;;;;21.20;11.30;;;;;;;;;;4955596;28;20039;-68
2022/11/03 05:05:19;;;;;;;26.38;12.80;;;;;;;;;;4959334;28;20417;-69
2022/11/03 05:07:50;;;;;;;24.63;11.93;;;;;;;;;;4966570;28;20116;-68
2022/11/03 05:10:19;;;;;;;22.23;11.57;;;;;;;;;;4966064;28;20035;-70
2022/11/03 05:12:46;;;;;;;26.13;11.27;;;;;;;;;;4969106;28;20053;-69
2022/11/03 05:15:42;;;;;;;25.10;11.68;;;;;;;;;;4971603;28;20073;-69
2022/11/03 05:18:17;;;;;;;23.42;12.40;;;;;;;;;;4968980;28;20043;-69
2022/11/03 05:20:49;;;;;;;22.10;11.68;;;;;;;;;;4968146;28;20043;-70
2022/11/03 05:23:15;;;;;;;23.60;11.80;;;;;;;;;;4966238;28;20138;-69
2022/11/03 05:25:46;;;;;;;21.42;11.30;;;;;;;;;;4964259;28;20101;-62
2022/11/03 05:28:29;;;;;;;24.10;11.60;;;;;;;;;;4972887;28;20488;-64
2022/11/03 05:30:55;;;;;;;24.77;11.80;;;;;;;;;;4972348;28;20062;-61
2022/11/03 05:33:27;;;;;;;24.35;11.23;;;;;;;;;;4969958;28;20141;-61
2022/11/03 05:35:55;;;;;;;32.33;12.02;;;;;;;;;;4969747;28;20054;-62
2022/11/03 05:38:22;;;;;;;20.77;12.35;;;;;;;;;;4969928;28;20367;-61
2022/11/03 05:40:50;;;;;;;27.70;12.30;;;;;;;;;;4954246;28;20054;-63
2022/11/03 05:43:17;;;;;;;26.33;12.15;;;;;;;;;;4959642;28;20058;-63
2022/11/03 05:45:43;;;;;;;23.23;11.18;;;;;;;;;;4964806;28;21057;-61
2022/11/03 05:48:18;;;;;;;28.27;12.43;;;;;;;;;;4966497;28;20507;-61
2022/11/03 05:50:44;;;;;;;22.13;11.35;;;;;;;;;;4945279;28;20447;-69
2022/11/03 05:53:42;;;;;;;22.00;11.40;;;;;;;;;;4963856;28;20039;-61
2022/11/03 05:56:17;;;;;;;23.73;12.07;;;;;;;;;;4963785;28;20051;-65
2022/11/03 05:58:44;;;;;;;25.30;12.45;;;;;;;;;;4961906;28;20053;-62
2022/11/03 06:01:28;;;;;;;27.60;12.32;;;;;;;;;;4958097;28;20081;-62
2022/11/03 06:03:54;;;;;;;28.67;12.68;;;;;;;;;;4960140;28;20051;-61
2022/11/03 06:06:25;;;;;;;29.83;12.82;;;;;;;;;;4959939;28;20181;-62
2022/11/03 06:08:51;;;;;;;26.50;13.02;;;;;;;;;;4961416;28;20437;-65
2022/11/03 06:11:36;;;;;;;21.45;12.00;;;;;;;;;;4963052;28;20063;-62
2022/11/03 06:14:17;;;;;;;22.55;12.48;;;;;;;;;;4962781;28;20050;-64
2022/11/03 06:16:47;;;;;;;29.30;12.40;;;;;;;;;;4961202;28;20140;-62
2022/11/03 06:19:30;;;;;;;21.27;13.38;;;;;;;;;;4962889;28;20054;-62
2022/11/03 06:22:00;;;;;;;23.67;12.82;;;;;;;;;;4959745;28;20051;-63
2022/11/03 06:24:30;;;;;;;25.35;12.32;;;;;;;;;;4962591;28;20906;-66
2022/11/03 06:26:57;;;;;;;23.75;11.30;;;;;;;;;;4961210;28;20063;-64
2022/11/03 06:29:23;;;;;;;24.55;12.40;;;;;;;;;;4962216;28;20160;-62
2022/11/03 06:31:54;;;;;;;31.10;14.80;;;;;;;;;;4959653;28;20271;-62
2022/11/03 06:34:48;;;;;;;21.40;11.50;;;;;;;;;;4940199;28;20256;-63
2022/11/03 06:37:20;;;;;;;19.75;11.30;;;;;;;;;;4955459;28;20054;-61
2022/11/03 06:39:47;;;;;;;30.63;12.02;;;;;;;;;;4958062;28;20054;-60
2022/11/03 06:42:15;;;;;;;27.77;12.55;;;;;;;;;;4954442;28;20054;-62
2022/11/03 06:44:45;;;;;;;24.10;11.45;;;;;;;;;;4956295;28;20062;-62
2022/11/03 06:47:29;;;;;;;23.02;11.30;;;;;;;;;;4954885;28;20054;-61
2022/11/03 06:49:58;;;;;;;20.50;11.73;;;;;;;;;;4954473;28;20050;-72
2022/11/03 06:52:38;;;;;;;30.45;11.52;;;;;;;;;;4951197;28;20106;-72
2022/11/03 06:55:07;;;;;;;25.75;12.00;;;;;;;;;;4954171;28;20078;-72
2022/11/03 06:57:45;;;;;;;20.05;11.35;;;;;;;;;;4954901;28;20078;-75
2022/11/03 07:00:21;;;;;;;18.13;11.95;;;;;;;;;;4950966;28;20058;-73
2022/11/03 07:03:02;;;;;;;20.33;12.23;;;;;;;;;;4958737;28;20058;-73
2022/11/03 07:05:30;;;;;;;21.23;11.60;;;;;;;;;;4954742;28;20090;-73
2022/11/03 07:08:17;;;;;;;28.42;12.70;;;;;;;;;;4955611;28;20106;-71
2022/11/03 07:10:43;;;;;;;30.35;11.80;;;;;;;;;;4949864;28;20054;-73
2022/11/03 07:13:13;;;;;;;23.40;12.18;;;;;;;;;;4953209;28;20041;-70
2022/11/03 07:15:42;;;;;;;28.17;11.65;;;;;;;;;;4955400;28;20050;-73
2022/11/03 07:18:34;;;;;;;26.10;11.63;;;;;;;;;;4965020;28;20456;-70
2022/11/03 07:21:12;;;;;;;19.38;11.07;;;;;;;;;;4967904;28;20050;-74
2022/11/03 07:23:39;;;;;;;27.10;10.55;;;;;;;;;;4965062;28;20296;-69
2022/11/03 07:26:09;;;;;;;21.63;10.13;;;;;;;;;;4964456;28;20047;-71
2022/11/03 07:28:37;;;;;;;20.60;9.23;;;;;;;;;;4963473;28;20646;-70
2022/11/03 07:31:17;;;;;;;20.27;8.95;;;;;;;;;;4968868;28;20042;-74
2022/11/03 07:33:44;;;;;;;16.05;8.40;;;;;;;;;;4975331;28;20054;-71
2022/11/03 07:36:17;;;;;;;17.30;8.45;;;;;;;;;;4983865;28;20104;-72
2022/11/03 07:38:45;;;;;;;20.35;8.55;;;;;;;;;;4986083;28;20058;-69
2022/11/03 07:41:17;;;;;;;17.88;8.25;;;;;;;;;;4987209;28;20104;-70
2022/11/03 07:44:04;;;;;;;20.30;8.75;;;;;;;;;;4988748;28;20442;-71
2022/11/03 07:46:30;;;;;;;17.00;8.68;;;;;;;;;;4989938;28;20050;-74
2022/11/03 07:48:58;;;;;;;16.55;8.48;;;;;;;;;;4983709;28;20842;-71
2022/11/03 07:51:42;;;;;;;22.58;8.70;;;;;;;;;;4988898;28;20464;-74
2022/11/03 07:54:12;;;;;;;16.52;8.43;;;;;;;;;;4988035;28;20046;-74
2022/11/03 07:56:42;;;;;;;19.92;8.75;;;;;;;;;;4987770;28;20137;-71
2022/11/03 07:59:07;;;;;;;20.52;8.85;;;;;;;;;;4985535;28;20049;-71
2022/11/03 08:01:42;;;;;;;18.30;8.60;;;;;;;;;;4988364;28;20050;-74
2022/11/03 08:04:18;;;;;;;23.67;9.07;;;;;;;;;;4965333;28;20044;-73
2022/11/03 08:06:45;;;;;;;20.67;9.25;;;;;;;;;;4986194;28;20056;-74
2022/11/03 08:09:10;;;;;;;24.17;8.60;;;;;;;;;;4987519;28;20042;-73
2022/11/03 08:11:36;;;;;;;28.83;8.77;;;;;;;;;;4984378;28;20100;-73
2022/11/03 08:14:02;;;;;;;24.10;8.38;;;;;;;;;;4985725;28;20038;-72
2022/11/03 08:16:28;;;;;;;17.30;8.80;;;;;;;;;;4986449;28;20050;-72
2022/11/03 08:18:54;;;;;;;25.55;8.77;;;;;;;;;;4986560;28;20455;-73
2022/11/03 08:21:20;;;;;;;20.27;8.32;;;;;;;;;;4987107;28;20058;-75
2022/11/03 08:23:46;;;;;;;20.90;8.27;;;;;;;;;;4988826;28;20133;-72
2022/11/03 08:26:12;;;;;;;18.25;8.20;;;;;;;;;;4992276;28;20061;-73
2022/11/03 08:28:38;;;;;;;22.45;8.65;;;;;;;;;;4991682;28;20054;-71
2022/11/03 08:31:04;;;;;;;23.02;8.57;;;;;;;;;;4991914;28;20057;-73
2022/11/03 08:33:32;;;;;;;22.88;9.00;;;;;;;;;;4991527;28;20059;-75
2022/11/03 08:35:59;;;;;;;18.65;8.70;;;;;;;;;;4990970;28;20093;-72
2022/11/03 08:38:25;;;;;;;29.25;9.00;;;;;;;;;;4991352;28;20145;-74
2022/11/03 08:40:53;;;;;;;22.88;9.05;;;;;;;;;;4991833;28;20401;-72
2022/11/03 08:43:18;;;;;;;20.70;9.05;;;;;;;;;;4991175;28;20054;-71
2022/11/03 08:45:45;;;;;;;20.27;8.88;;;;;;;;;;4992543;28;20050;-74
2022/11/03 08:48:11;;;;;;;19.67;8.70;;;;;;;;;;4993832;28;20073;-72
2022/11/03 08:50:38;;;;;;;20.88;8.88;;;;;;;;;;4993998;28;20101;-72
2022/11/03 08:53:04;;;;;;;20.52;8.63;;;;;;;;;;4992547;28;20042;-72
2022/11/03 08:55:30;;;;;;;21.25;8.90;;;;;;;;;;4991848;28;20049;-75
2022/11/03 08:57:55;;;;;;;23.75;8.98;;;;;;;;;;4991132;28;20042;-73
2022/11/03 09:00:21;;;;;;;19.00;9.18;;;;;;;;;;4991290;28;20504;-73
2022/11/03 09:02:47;;;;;;;19.15;9.52;;;;;;;;;;4991895;28;20058;-73
2022/11/03 09:05:13;;;;;;;21.70;7.80;;;;;;;;;;4992280;28;20053;-73
2022/11/03 09:07:39;;;;;;;14.05;6.38;;;;;;;;;;4991958;28;20247;-75
2022/11/03 09:10:08;;;;;;;18.48;7.28;;;;;;;;;;4993171;28;20047;-70
2022/11/03 09:12:34;;;;;;;20.50;7.05;;;;;;;;;;4989925;28;20083;-68
2022/11/03 09:15:00;;;;;;;12.68;6.70;;;;;;;;;;4990923;28;20043;-68
2022/11/03 09:17:26;;;;;;;13.52;5.80;;;;;;;;;;4990252;28;20100;-67
2022/11/03 09:19:52;;;;;;;13.32;5.80;;;;;;;;;;4989991;28;20056;-67
2022/11/03 09:22:18;;;;;;;17.05;5.95;;;;;;;;;;4990018;28;20404;-67
2022/11/03 09:24:44;;;;;;;12.38;5.50;;;;;;;;;;4989795;28;20104;-67
2022/11/03 09:27:10;;;;;;;12.48;5.20;;;;;;;;;;4989293;28;20092;-68
2022/11/03 09:29:36;;;;;;;11.43;5.18;;;;;;;;;;4989648;28;20050;-69
2022/11/03 09:32:01;;;;;;;13.50;5.38;;;;;;;;;;4989903;28;20051;-69
2022/11/03 09:34:28;;;;;;;17.42;5.90;;;;;;;;;;4988576;28;20459;-66
2022/11/03 09:36:54;;;;;;;8.85;5.18;;;;;;;;;;4985017;28;20090;-68
2022/11/03 09:39:20;;;;;;;11.73;4.75;;;;;;;;;;4989060;28;20333;-68
2022/11/03 09:41:46;;;;;;;12.70;4.53;;;;;;;;;;4989063;28;20054;-68
2022/11/03 09:44:12;;;;;;;11.88;4.45;;;;;;;;;;4971080;28;20508;-67
2022/11/03 09:46:38;;;;;;;11.77;4.55;;;;;;;;;;4989076;28;20101;-66
2022/11/03 09:49:05;;;;;;;7.40;4.75;;;;;;;;;;4989422;28;20057;-66
2022/11/03 09:51:33;;;;;;;10.27;3.65;;;;;;;;;;4988685;28;20079;-69
2022/11/03 09:54:03;;;;;;;13.63;4.03;;;;;;;;;;4989590;28;20038;-68
2022/11/03 09:56:29;;;;;;;10.25;4.00;;;;;;;;;;4989057;28;20042;-67
2022/11/03 09:58:55;;;;;;;9.40;3.85;;;;;;;;;;4989188;28;20042;-67
2022/11/03 10:01:22;;;;;;;8.35;3.20;;;;;;;;;;4989407;28;20496;-66
2022/11/03 10:03:47;;;;;;;17.83;4.30;;;;;;;;;;4989397;28;20046;-67
2022/11/03 10:06:15;;;;;;;11.35;3.20;;;;;;;;;;4989084;28;20059;-69
2022/11/03 10:08:43;;;;;;;12.90;3.63;;;;;;;;;;4989405;28;20050;-67
2022/11/03 10:11:09;;;;;;;15.10;3.45;;;;;;;;;;4989150;28;20038;-66
2022/11/03 10:13:44;;;;;;;10.63;2.95;;;;;;;;;;4989074;28;20046;-74
2022/11/03 10:16:15;;;;;;;12.43;3.20;;;;;;;;;;4989332;28;20054;-71
2022/11/03 10:18:42;;;;;;;12.27;3.17;;;;;;;;;;4990533;28;20057;-68
2022/11/03 10:21:19;;;;;;;10.70;3.00;;;;;;;;;;4993097;28;20072;-69
2022/11/03 10:23:45;;;;;;;16.00;3.10;;;;;;;;;;4990907;28;20845;-68
2022/11/03 10:26:17;;;;;;;13.57;3.00;;;;;;;;;;4991138;28;20137;-68
2022/11/03 10:29:00;;;;;;;9.13;2.80;;;;;;;;;;4991852;28;20042;-68
2022/11/03 10:31:40;;;;;;;11.57;2.92;;;;;;;;;;4988918;28;20046;-70
2022/11/03 10:34:36;;;;;;;6.25;2.78;;;;;;;;;;4987952;28;20054;-69
2022/11/03 10:37:10;;;;;;;15.52;2.70;;;;;;;;;;4987042;28;20043;-67
2022/11/03 10:39:36;;;;;;;;;;;;;;;;;;4988681;28;20050;-69
2022/11/03 10:42:02;;;;;;;15.88;3.60;;;;;;;;;;4988099;28;20311;-69
2022/11/03 10:44:29;;;;;;;17.67;2.60;;;;;;;;;;4987900;28;20054;-69
2022/11/03 10:46:58;;;;;;;20.30;2.67;;;;;;;;;;4987523;28;20508;-69
2022/11/03 10:49:24;;;;;;;14.20;2.65;;;;;;;;;;4988314;28;20557;-68
2022/11/03 10:51:52;;;;;;;17.83;2.50;;;;;;;;;;4988733;28;20611;-70
2022/11/03 10:54:21;;;;;;;16.80;2.35;;;;;;;;;;4987626;28;20081;-67
2022/11/03 10:56:49;;;;;;;11.93;2.47;;;;;;;;;;4976733;28;20073;-67
2022/11/03 10:59:30;;;;;;;12.90;2.17;;;;;;;;;;4989519;28;20092;-68
2022/11/03 11:02:00;;;;;;;8.73;2.42;;;;;;;;;;4973826;28;20096;-71
2022/11/03 11:04:27;;;;;;;8.32;2.30;;;;;;;;;;4981182;28;20050;-71
2022/11/03 11:06:53;;;;;;;13.68;2.63;;;;;;;;;;4987534;28;20042;-69
2022/11/03 11:09:25;;;;;;;12.98;2.60;;;;;;;;;;4998557;28;20057;-71
2022/11/03 11:12:18;;;;;;;13.07;2.55;;;;;;;;;;4988859;28;20042;-69
2022/11/03 11:14:59;;;;;;;11.57;2.80;;;;;;;;;;4974255;28;20050;-68
2022/11/03 11:17:40;;;;;;;18.13;3.20;;;;;;;;;;4969118;28;20057;-67
2022/11/03 11:20:17;;;;;;;20.92;2.85;;;;;;;;;;4988676;28;20042;-69
2022/11/03 11:22:44;;;;;;;19.83;3.28;;;;;;;;;;4990311;28;20054;-69
2022/11/03 11:25:10;;;;;;;16.25;3.10;;;;;;;;;;4991122;28;20038;-70
2022/11/03 11:27:42;;;;;;;6.35;2.45;;;;;;;;;;4987352;28;20042;-69
2022/11/03 11:30:19;;;;;;;9.02;2.40;;;;;;;;;;4987905;28;20607;-72
2022/11/03 11:32:48;;;;;;;10.05;2.50;;;;;;;;;;4987182;28;20641;-68
2022/11/03 11:35:14;;;;;;;9.00;2.60;;;;;;;;;;4987646;28;20046;-69
2022/11/03 11:37:40;;;;;;;16.45;2.60;;;;;;;;;;4985366;28;20069;-70
2022/11/03 11:40:35;;;;;;;11.90;2.40;;;;;;;;;;4986898;28;20065;-69
2022/11/03 11:43:12;;;;;;;9.57;2.30;;;;;;;;;;4971481;28;20057;-69
2022/11/03 11:46:16;;;;;;;15.45;2.00;;;;;;;;;;4986967;28;20050;-70
2022/11/03 11:48:41;;;;;;;8.50;2.20;;;;;;;;;;4976919;28;20046;-69
2022/11/03 11:51:10;;;;;;;13.80;2.20;;;;;;;;;;4989315;28;20462;-70
2022/11/03 11:53:42;;;;;;;10.25;2.03;;;;;;;;;;4987476;28;20136;-69
2022/11/03 11:56:11;;;;;;;10.63;2.47;;;;;;;;;;4989595;28;20054;-69
2022/11/03 11:58:40;;;;;;;5.45;1.92;;;;;;;;;;4989045;28;20057;-70
2022/11/03 12:01:27;;;;;;;6.68;1.95;;;;;;;;;;4986785;28;20053;-70
2022/11/03 12:03:59;;;;;;;9.63;2.30;;;;;;;;;;4986558;28;20042;-68
2022/11/03 12:06:38;;;;;;;5.95;2.05;;;;;;;;;;4969134;28;20128;-68
2022/11/03 12:09:14;;;;;;;11.02;2.28;;;;;;;;;;4986467;28;20081;-69
2022/11/03 12:11:41;;;;;;;9.70;2.50;;;;;;;;;;4987530;28;20348;-68
2022/11/03 12:14:36;;;;;;;6.55;1.92;;;;;;;;;;4985596;28;20348;-68
2022/11/03 12:17:17;;;;;;;7.47;1.70;;;;;;;;;;4988782;28;20203;-69
2022/11/03 12:19:47;;;;;;;6.88;2.30;;;;;;;;;;4986430;28;20504;-69
2022/11/03 12:22:22;;;;;;;5.57;2.13;;;;;;;;;;4986408;28;20042;-70
2022/11/03 12:24:59;;;;;;;11.85;2.13;;;;;;;;;;4986818;28;20109;-67
2022/11/03 12:27:25;;;;;;;9.18;2.70;;;;;;;;;;4986651;28;20473;-70
2022/11/03 12:29:55;;;;;;;9.55;2.50;;;;;;;;;;4986389;28;20051;-70
2022/11/03 12:32:22;;;;;;;9.20;2.65;;;;;;;;;;4986159;28;20038;-70
2022/11/03 12:34:48;;;;;;;8.80;2.75;;;;;;;;;;4987357;28;20054;-70
2022/11/03 12:37:14;;;;;;;13.02;2.45;;;;;;;;;;4985219;28;20051;-69
2022/11/03 12:39:40;;;;;;;7.65;2.47;;;;;;;;;;4991995;28;20389;-69
2022/11/03 12:42:06;;;;;;;12.85;2.88;;;;;;;;;;4985305;28;20054;-70
2022/11/03 12:44:32;;;;;;;9.10;2.28;;;;;;;;;;4998442;28;20054;-69
2022/11/03 12:47:00;;;;;;;7.10;2.28;;;;;;;;;;4993857;28;20480;-69
2022/11/03 12:49:26;;;;;;;10.90;2.60;;;;;;;;;;4990125;28;20391;-69
2022/11/03 12:51:52;;;;;;;11.30;2.33;;;;;;;;;;4993102;28;20359;-69
2022/11/03 12:54:18;;;;;;;7.18;2.55;;;;;;;;;;4991136;28;20404;-68
2022/11/03 12:56:44;;;;;;;6.53;2.38;;;;;;;;;;4998634;28;20042;-70
2022/11/03 12:59:10;;;;;;;6.47;2.17;;;;;;;;;;4988892;28;20053;-68
2022/11/03 13:01:36;;;;;;;8.50;2.72;;;;;;;;;;4971601;28;20473;-71
2022/11/03 13:04:06;;;;;;;10.90;2.80;;;;;;;;;;4986214;28;20092;-67
2022/11/03 13:06:32;;;;;;;7.05;2.47;;;;;;;;;;4992736;28;20591;-70
2022/11/03 13:08:57;;;;;;;7.40;2.53;;;;;;;;;;4991938;28;20066;-72
2022/11/03 13:14:21;;;;;;;7.20;2.65;;;;;;;;;;4928723;29;20047;-70
2022/11/03 13:16:47;;;;;;;15.55;2.78;;;;;;;;;;4930506;29;20071;-69
2022/11/03 13:19:13;;;;;;;9.35;2.70;;;;;;;;;;4931694;29;20458;-69
2022/11/03 13:21:39;;;;;;;10.93;2.55;;;;;;;;;;4938823;29;20050;-70
2022/11/03 13:24:05;;;;;;;7.32;2.28;;;;;;;;;;4939574;29;20048;-69
2022/11/03 13:26:31;;;;;;;7.35;2.40;;;;;;;;;;4930921;29;20051;-70
2022/11/03 13:28:57;;;;;;;8.10;2.50;;;;;;;;;;4932833;29;20074;-70
2022/11/03 13:31:23;;;;;;;12.77;2.35;;;;;;;;;;4916588;29;20054;-69
2022/11/03 13:33:50;;;;;;;5.90;2.28;;;;;;;;;;4938928;29;20059;-71
2022/11/03 13:36:16;;;;;;;8.40;2.20;;;;;;;;;;4938856;29;20055;-70
2022/11/03 13:38:42;;;;;;;10.15;2.47;;;;;;;;;;4927611;29;20048;-69
2022/11/03 13:41:08;;;;;;;9.55;2.50;;;;;;;;;;4931491;29;20274;-69
2022/11/03 13:43:33;;;;;;;9.07;2.42;;;;;;;;;;4937517;29;20624;-68
2022/11/03 13:46:01;;;;;;;9.38;2.28;;;;;;;;;;4929350;29;20351;-71
2022/11/03 13:48:27;;;;;;;6.30;2.30;;;;;;;;;;4940551;29;20044;-71
2022/11/03 13:50:54;;;;;;;5.53;2.38;;;;;;;;;;4981706;28;20133;-67
2022/11/03 13:53:21;;;;;;;9.05;2.28;;;;;;;;;;4993711;28;20042;-68
2022/11/03 13:55:46;;;;;;;7.32;2.13;;;;;;;;;;4988716;28;20327;-69
2022/11/03 13:58:12;;;;;;;7.38;2.17;;;;;;;;;;4988462;28;20125;-68
2022/11/03 14:00:38;;;;;;;9.23;2.10;;;;;;;;;;4991779;28;20038;-68
2022/11/03 14:03:04;;;;;;;6.47;2.20;;;;;;;;;;4998438;28;20043;-67
2022/11/03 14:05:30;;;;;;;9.45;2.13;;;;;;;;;;4989093;28;20100;-69
2022/11/03 14:07:56;;;;;;;9.48;3.10;;;;;;;;;;4988442;28;20046;-70
2022/11/03 14:10:22;;;;;;;10.02;2.20;;;;;;;;;;4998385;28;20050;-69
2022/11/03 14:12:48;;;;;;;4.72;1.90;;;;;;;;;;4993867;28;20450;-69
2022/11/03 14:15:14;;;;;;;7.38;2.00;;;;;;;;;;4989757;28;20057;-69
2022/11/03 14:17:40;;;;;;;6.43;1.70;;;;;;;;;;4987967;28;20046;-70
2022/11/03 14:20:09;;;;;;;8.18;2.08;;;;;;;;;;4996785;28;20333;-67
2022/11/03 14:22:35;;;;;;;6.65;1.60;;;;;;;;;;4988250;28;20357;-69
2022/11/03 14:25:01;;;;;;;7.10;2.25;;;;;;;;;;5004551;28;20262;-70
2022/11/03 14:27:27;;;;;;;4.60;1.55;;;;;;;;;;5004441;28;20043;-69
2022/11/03 14:29:53;;;;;;;7.72;2.10;;;;;;;;;;5000502;28;20053;-71
2022/11/03 14:32:19;;;;;;;3.63;1.58;;;;;;;;;;4992860;28;20038;-68
2022/11/03 14:34:46;;;;;;;12.73;2.40;;;;;;;;;;4990683;28;20057;-71
2022/11/03 14:37:12;;;;;;;6.88;1.85;;;;;;;;;;4991936;28;20061;-68
2022/11/03 14:39:38;;;;;;;5.65;2.25;;;;;;;;;;4988816;28;20047;-69
2022/11/03 14:42:13;;;;;;;3.45;2.00;;;;;;;;;;4988126;28;20050;-69
2022/11/03 14:44:40;;;;;;;4.38;1.60;;;;;;;;;;4988341;28;20455;-69
2022/11/03 14:47:11;;;;;;;4.55;1.67;;;;;;;;;;4993960;28;20508;-68
2022/11/03 14:49:37;;;;;;;5.78;1.58;;;;;;;;;;4991152;28;20050;-70
2022/11/03 14:52:05;;;;;;;4.25;1.70;;;;;;;;;;4991786;28;20762;-69
2022/11/03 14:54:32;;;;;;;6.68;1.88;;;;;;;;;;4988363;28;20046;-69
2022/11/03 14:56:58;;;;;;;3.72;1.73;;;;;;;;;;4994608;28;20053;-71
2022/11/03 14:59:24;;;;;;;7.85;1.55;;;;;;;;;;5006445;28;20049;-72
2022/11/03 15:01:51;;;;;;;8.13;1.60;;;;;;;;;;4993352;28;20503;-69
2022/11/03 15:04:17;;;;;;;4.47;1.70;;;;;;;;;;4988126;28;20057;-74